createdAt,value
2023-09-09T00:00:53.295Z,96845.38
2023-09-09T00:03:21.411Z,96856.63
2023-09-09T00:05:49.337Z,96847.75
2023-09-09T00:08:20.521Z,96855.25
2023-09-09T00:10:48.274Z,96848.50
2023-09-09T00:13:15.774Z,96848.50
2023-09-09T00:15:42.738Z,96851.56
2023-09-09T00:18:09.575Z,96853.63
2023-09-09T00:20:40.219Z,96850.69
2023-09-09T00:23:10.530Z,96860.00
2023-09-09T00:25:41.453Z,96861.34
2023-09-09T00:28:09.601Z,96855.25
2023-09-09T00:30:36.625Z,96863.06
2023-09-09T00:33:04.048Z,96861.19
2023-09-09T00:35:34.024Z,96859.66
2023-09-09T00:38:02.001Z,96864.03
2023-09-09T00:40:28.864Z,96864.78
2023-09-09T00:42:55.655Z,96866.09
2023-09-09T00:45:22.354Z,96865.78
2023-09-09T00:47:49.671Z,96872.78
2023-09-09T00:50:16.575Z,96869.31
2023-09-09T00:52:43.988Z,96869.31
2023-09-09T00:55:15.077Z,96867.94
2023-09-09T00:57:41.758Z,96873.03
2023-09-09T01:00:12.225Z,96876.16
2023-09-09T01:02:41.535Z,96872.81
2023-09-09T01:05:10.236Z,96876.81
2023-09-09T01:07:50.247Z,96875.41
2023-09-09T01:10:18.507Z,96868.25
2023-09-09T01:12:45.952Z,96871.81
2023-09-09T01:15:14.289Z,96876.47
2023-09-09T01:17:41.438Z,96876.16
2023-09-09T01:20:20.896Z,96871.91
2023-09-09T01:22:51.512Z,96882.44
2023-09-09T01:25:18.279Z,96875.47
2023-09-09T01:27:45.193Z,96877.53
2023-09-09T01:30:13.111Z,96873.00
2023-09-09T01:32:40.506Z,96885.75
2023-09-09T01:35:08.282Z,96878.41
2023-09-09T01:37:35.561Z,96871.91
2023-09-09T01:40:11.387Z,96882.28
2023-09-09T01:42:39.659Z,96867.66
2023-09-09T01:45:06.967Z,96873.53
2023-09-09T01:47:34.180Z,96875.56
2023-09-09T01:50:00.917Z,96878.81
2023-09-09T01:52:27.703Z,96876.97
2023-09-09T01:54:55.051Z,96875.44
2023-09-09T01:57:23.236Z,96877.84
2023-09-09T01:59:49.874Z,96877.50
2023-09-09T02:02:23.866Z,96873.59
2023-09-09T02:04:50.722Z,96875.97
2023-09-09T02:07:17.463Z,96875.63
2023-09-09T02:09:44.234Z,96868.34
2023-09-09T02:12:11.468Z,96872.66
2023-09-09T02:14:38.350Z,96871.59
2023-09-09T02:17:05.325Z,96877.00
2023-09-09T02:19:33.346Z,96876.25
2023-09-09T02:22:00.108Z,96874.72
2023-09-09T02:24:26.881Z,96876.44
2023-09-09T02:26:53.617Z,96871.88
2023-09-09T02:29:20.340Z,96878.50
2023-09-09T02:31:47.087Z,96873.16
2023-09-09T02:34:14.225Z,96876.63
2023-09-09T02:36:45.772Z,96884.31
2023-09-09T02:39:12.642Z,96876.19
2023-09-09T02:41:39.490Z,96875.88
2023-09-09T02:44:06.523Z,96877.16
2023-09-09T02:46:33.358Z,96876.50
2023-09-09T02:49:00.194Z,96882.66
2023-09-09T02:51:26.989Z,96882.34
2023-09-09T02:53:53.965Z,96872.69
2023-09-09T02:56:20.870Z,96877.75
2023-09-09T02:58:47.508Z,96875.06
2023-09-09T03:01:14.474Z,96873.22
2023-09-09T03:03:41.695Z,96869.00
2023-09-09T03:06:11.730Z,96871.00
2023-09-09T03:08:38.490Z,96873.41
2023-09-09T03:11:05.217Z,96867.97
2023-09-09T03:13:32.169Z,96874.16
2023-09-09T03:15:59.095Z,96867.66
2023-09-09T03:18:25.939Z,96865.72
2023-09-09T03:20:52.864Z,96870.78
2023-09-09T03:23:20.000Z,96866.97
2023-09-09T03:25:46.881Z,96869.69
2023-09-09T03:28:13.564Z,96870.88
2023-09-09T03:30:55.083Z,96869.34
2023-09-09T03:33:22.386Z,96872.16
2023-09-09T03:35:49.453Z,96868.72
2023-09-09T03:38:16.632Z,96871.41
2023-09-09T03:40:43.849Z,96879.09
2023-09-09T03:43:10.983Z,96877.47
2023-09-09T03:45:38.211Z,96878.16
2023-09-09T03:48:05.769Z,96876.88
2023-09-09T03:50:33.239Z,96874.69
2023-09-09T03:53:00.718Z,96877.72
2023-09-09T03:55:27.384Z,96877.81
2023-09-09T03:57:54.529Z,96879.53
2023-09-09T04:00:21.329Z,96881.22
2023-09-09T04:02:48.242Z,96877.84
2023-09-09T04:05:15.123Z,96882.19
2023-09-09T04:07:45.281Z,96881.13
2023-09-09T04:10:13.202Z,96883.16
2023-09-09T04:12:40.344Z,96883.22
2023-09-09T04:15:08.096Z,96880.53
2023-09-09T04:17:35.131Z,96884.50
2023-09-09T04:20:02.532Z,96883.06
2023-09-09T04:22:29.316Z,96875.38
2023-09-09T04:24:56.053Z,96877.66
2023-09-09T04:27:23.401Z,96878.00
2023-09-09T04:29:50.285Z,96875.28
2023-09-09T04:32:17.103Z,96885.78
2023-09-09T04:34:43.955Z,96881.47
2023-09-09T04:37:10.780Z,96888.91
2023-09-09T04:39:37.780Z,96884.31
2023-09-09T04:42:04.693Z,96884.25
2023-09-09T04:44:31.385Z,96891.50
2023-09-09T04:46:58.236Z,96885.78
2023-09-09T04:49:25.122Z,96894.66
2023-09-09T04:51:51.817Z,96890.09
2023-09-09T04:54:19.725Z,96895.91
2023-09-09T04:56:48.235Z,96893.97
2023-09-09T04:59:15.110Z,96896.25
2023-09-09T05:01:43.432Z,96904.72
2023-09-09T05:04:10.477Z,96903.63
2023-09-09T05:06:37.372Z,96908.16
2023-09-09T05:09:04.041Z,96899.63
2023-09-09T05:11:31.474Z,96902.66
2023-09-09T05:13:58.160Z,96897.63
2023-09-09T05:16:25.359Z,96906.81
2023-09-09T05:18:52.204Z,96906.38
2023-09-09T05:21:19.171Z,96907.50
2023-09-09T05:23:46.152Z,96911.78
2023-09-09T05:26:13.019Z,96907.91
2023-09-09T05:28:39.781Z,96903.69
2023-09-09T05:31:07.629Z,96911.47
2023-09-09T05:33:34.831Z,96917.63
2023-09-09T05:36:01.932Z,96914.94
2023-09-09T05:38:30.698Z,96922.94
2023-09-09T05:40:57.537Z,96922.13
2023-09-09T05:43:24.284Z,96915.50
2023-09-09T05:45:51.057Z,96923.53
2023-09-09T05:48:17.755Z,96920.47
2023-09-09T05:50:44.679Z,96923.91
2023-09-09T05:53:11.728Z,96926.53
2023-09-09T05:55:38.462Z,96924.16
2023-09-09T05:58:05.671Z,96926.78
2023-09-09T06:00:35.514Z,96928.72
2023-09-09T06:03:02.256Z,96931.44
2023-09-09T06:05:29.074Z,96920.28
2023-09-09T06:07:57.729Z,96930.41
2023-09-09T06:10:24.491Z,96921.22
2023-09-09T06:12:51.372Z,96922.72
2023-09-09T06:15:18.086Z,96939.63
2023-09-09T06:17:46.545Z,96936.53
2023-09-09T06:20:15.605Z,96934.91
2023-09-09T06:22:42.277Z,96936.09
2023-09-09T06:25:09.774Z,96937.59
2023-09-09T06:27:36.608Z,96948.31
2023-09-09T06:30:03.460Z,96947.81
2023-09-09T06:32:30.297Z,96943.50
2023-09-09T06:34:57.297Z,96952.75
2023-09-09T06:37:25.073Z,96952.63
2023-09-09T06:39:51.843Z,96954.50
2023-09-09T06:42:18.575Z,96956.03
2023-09-09T06:44:45.280Z,96957.13
2023-09-09T06:47:12.685Z,96961.34
2023-09-09T06:49:39.703Z,96956.25
2023-09-09T06:52:06.801Z,96960.06
2023-09-09T06:54:33.610Z,96961.16
2023-09-09T06:57:00.464Z,96973.06
2023-09-09T06:59:27.209Z,96966.41
2023-09-09T07:01:53.935Z,96970.53
2023-09-09T07:04:20.742Z,96971.53
2023-09-09T07:07:04.915Z,96967.66
2023-09-09T07:09:34.784Z,96966.97
2023-09-09T07:12:01.528Z,96972.31
2023-09-09T07:14:28.552Z,96975.25
2023-09-09T07:16:56.155Z,96970.59
2023-09-09T07:19:23.041Z,96980.16
2023-09-09T07:21:50.035Z,96981.19
2023-09-09T07:24:16.751Z,96981.41
2023-09-09T07:26:43.482Z,96977.00
2023-09-09T07:29:10.792Z,96985.03
2023-09-09T07:31:39.417Z,96978.31
2023-09-09T07:34:07.532Z,96979.31
2023-09-09T07:36:34.450Z,96976.53
2023-09-09T07:39:01.285Z,96980.97
2023-09-09T07:41:27.912Z,96976.09
2023-09-09T07:43:54.672Z,96976.00
2023-09-09T07:46:21.832Z,96981.22
2023-09-09T07:48:48.551Z,96976.38
2023-09-09T07:51:15.487Z,96979.31
2023-09-09T07:53:42.183Z,96978.34
2023-09-09T07:56:08.823Z,96980.84
2023-09-09T07:58:35.652Z,96975.56
2023-09-09T08:01:08.055Z,96976.75
2023-09-09T08:03:35.612Z,96980.66
2023-09-09T08:06:03.830Z,96983.91
2023-09-09T08:08:30.849Z,96974.66
2023-09-09T08:10:57.542Z,96985.63
2023-09-09T08:13:25.502Z,96978.69
2023-09-09T08:15:52.547Z,96983.31
2023-09-09T08:18:19.399Z,96984.47
2023-09-09T08:20:50.886Z,96980.63
2023-09-09T08:23:18.102Z,96981.47
2023-09-09T08:25:44.806Z,96985.03
2023-09-09T08:28:12.249Z,96992.97
2023-09-09T08:30:39.044Z,96988.03
2023-09-09T08:33:05.859Z,96981.16
2023-09-09T08:35:33.639Z,96982.28
2023-09-09T08:38:01.676Z,96976.13
2023-09-09T08:40:28.933Z,96977.84
2023-09-09T08:43:06.684Z,96969.41
2023-09-09T08:45:42.120Z,96973.38
2023-09-09T08:48:11.949Z,96969.22
2023-09-09T08:50:42.236Z,96970.47
2023-09-09T08:53:14.172Z,96978.53
2023-09-09T08:55:42.300Z,96975.72
2023-09-09T08:58:10.038Z,96972.69
2023-09-09T09:00:39.259Z,96974.84
2023-09-09T09:03:06.510Z,96972.00
2023-09-09T09:05:34.883Z,96973.53
2023-09-09T09:08:02.271Z,96970.84
2023-09-09T09:10:29.194Z,96970.25
2023-09-09T09:12:56.187Z,96970.88
2023-09-09T09:15:23.140Z,96972.25
2023-09-09T09:17:50.457Z,96968.75
2023-09-09T09:20:34.688Z,96968.91
2023-09-09T09:23:06.465Z,96969.34
2023-09-09T09:25:38.742Z,96961.13
2023-09-09T09:28:05.926Z,96970.66
2023-09-09T09:30:34.540Z,96963.81
2023-09-09T09:33:01.334Z,96962.84
2023-09-09T09:35:30.357Z,96963.59
2023-09-09T09:37:58.143Z,96960.84
2023-09-09T09:40:26.173Z,96951.28
2023-09-09T09:42:54.127Z,96957.16
2023-09-09T09:45:31.643Z,96950.59
2023-09-09T09:47:59.877Z,96950.41
2023-09-09T09:50:34.498Z,96951.94
2023-09-09T09:53:03.734Z,96950.09
2023-09-09T09:55:32.625Z,96958.69
2023-09-09T09:58:01.672Z,96952.25
2023-09-09T10:00:28.913Z,96951.56
2023-09-09T10:02:59.818Z,96949.34
2023-09-09T10:05:29.300Z,96952.47
2023-09-09T10:08:21.772Z,96951.00
2023-09-09T10:11:06.774Z,96948.03
2023-09-09T10:13:44.441Z,96953.88
2023-09-09T10:16:15.569Z,96945.38
2023-09-09T10:18:43.349Z,96948.41
2023-09-09T10:21:11.690Z,96942.09
2023-09-09T10:23:39.604Z,96935.13
2023-09-09T10:26:08.537Z,96937.59
2023-09-09T10:28:36.736Z,96938.72
2023-09-09T10:31:05.498Z,96937.38
2023-09-09T10:33:32.917Z,96940.59
2023-09-09T10:36:00.173Z,96936.75
2023-09-09T10:38:27.716Z,96925.25
2023-09-09T10:40:55.456Z,96928.06
2023-09-09T10:43:22.312Z,96928.22
2023-09-09T10:45:51.753Z,96926.31
2023-09-09T10:48:22.688Z,96923.56
2023-09-09T10:50:54.791Z,96919.59
2023-09-09T10:53:21.677Z,96914.59
2023-09-09T10:55:48.992Z,96914.19
2023-09-09T10:58:19.770Z,96911.91
2023-09-09T11:00:48.496Z,96918.78
2023-09-09T11:03:28.816Z,96911.94
2023-09-09T11:05:59.960Z,96916.78
2023-09-09T11:08:34.230Z,96913.44
2023-09-09T11:11:08.978Z,96914.03
2023-09-09T11:13:43.270Z,96907.44
2023-09-09T11:16:40.586Z,96909.59
2023-09-09T11:19:08.736Z,96905.91
2023-09-09T11:21:39.597Z,96900.72
2023-09-09T11:24:07.946Z,96913.00
2023-09-09T11:26:47.979Z,96900.56
2023-09-09T11:29:30.223Z,96900.06
2023-09-09T11:32:04.192Z,96895.16
2023-09-09T11:34:34.313Z,96897.19
2023-09-09T11:37:02.498Z,96893.47
2023-09-09T11:39:29.485Z,96894.50
2023-09-09T11:41:56.513Z,96890.06
2023-09-09T11:44:23.184Z,96892.38
2023-09-09T11:46:52.780Z,96895.69
2023-09-09T11:49:20.219Z,96893.00
2023-09-09T11:51:47.578Z,96890.06
2023-09-09T11:54:20.902Z,96886.06
2023-09-09T11:56:48.234Z,96883.56
2023-09-09T11:59:14.975Z,96880.56
2023-09-09T12:01:43.786Z,96883.31
2023-09-09T12:04:12.471Z,96883.59
2023-09-09T12:06:43.120Z,96880.16
2023-09-09T12:09:10.808Z,96877.44
2023-09-09T12:11:39.980Z,96880.44
2023-09-09T12:14:06.933Z,96876.94
2023-09-09T12:16:35.686Z,96875.97
2023-09-09T12:19:02.488Z,96878.97
2023-09-09T12:21:30.980Z,96875.72
2023-09-09T12:23:59.646Z,96871.94
2023-09-09T12:26:27.645Z,96877.94
2023-09-09T12:29:11.694Z,96877.44
2023-09-09T12:31:52.139Z,96873.47
2023-09-09T12:34:20.955Z,96872.97
2023-09-09T12:36:49.345Z,96874.22
2023-09-09T12:39:31.923Z,96875.44
2023-09-09T12:41:59.985Z,96876.69
2023-09-09T12:44:26.967Z,96868.13
2023-09-09T12:46:54.738Z,96863.59
2023-09-09T12:49:21.557Z,96867.16
2023-09-09T12:51:48.199Z,96873.69
2023-09-09T12:54:14.987Z,96863.47
2023-09-09T12:56:41.796Z,96868.72
2023-09-09T12:59:08.463Z,96864.72
2023-09-09T13:01:35.214Z,96866.72
2023-09-09T13:04:02.081Z,96866.72
2023-09-09T13:06:28.977Z,96868.47
2023-09-09T13:08:55.762Z,96861.97
2023-09-09T13:11:23.252Z,96853.94
2023-09-09T13:13:50.050Z,96854.94
2023-09-09T13:16:17.853Z,96852.19
2023-09-09T13:18:44.920Z,96847.16
2023-09-09T13:21:11.608Z,96849.94
2023-09-09T13:23:38.867Z,96835.94
2023-09-09T13:26:05.853Z,96837.69
2023-09-09T13:28:33.644Z,96840.72
2023-09-09T13:31:01.647Z,96841.69
2023-09-09T13:33:28.392Z,96835.97
2023-09-09T13:35:55.297Z,96839.69
2023-09-09T13:38:21.990Z,96840.44
2023-09-09T13:40:48.886Z,96843.22
2023-09-09T13:43:16.332Z,96838.94
2023-09-09T13:45:43.220Z,96826.22
2023-09-09T13:48:10.110Z,96831.94
2023-09-09T13:50:36.784Z,96831.44
2023-09-09T13:53:04.445Z,96832.19
2023-09-09T13:55:31.253Z,96824.69
2023-09-09T13:57:58.196Z,96823.69
2023-09-09T14:00:25.032Z,96824.19
2023-09-09T14:02:51.920Z,96815.66
2023-09-09T14:05:18.727Z,96820.97
2023-09-09T14:07:46.392Z,96814.69
2023-09-09T14:10:13.423Z,96817.69
2023-09-09T14:12:42.811Z,96809.44
2023-09-09T14:15:11.345Z,96814.19
2023-09-09T14:17:37.982Z,96813.69
2023-09-09T14:20:06.102Z,96813.19
2023-09-09T14:22:32.899Z,96809.41
2023-09-09T14:24:59.534Z,96808.94
2023-09-09T14:27:26.374Z,96811.69
2023-09-09T14:29:54.408Z,96806.44
2023-09-09T14:32:21.131Z,96802.41
2023-09-09T14:34:48.408Z,96808.94
2023-09-09T14:37:15.158Z,96804.69
2023-09-09T14:39:41.819Z,96808.44
2023-09-09T14:42:08.797Z,96806.19
2023-09-09T14:44:35.527Z,96808.44
2023-09-09T14:47:02.264Z,96803.19
2023-09-09T14:49:29.659Z,96807.72
2023-09-09T14:51:56.916Z,96801.66
2023-09-09T14:54:23.601Z,96802.16
2023-09-09T14:56:50.334Z,96801.19
2023-09-09T14:59:17.068Z,96802.44
2023-09-09T15:01:44.044Z,96800.16
2023-09-09T15:04:11.338Z,96797.69
2023-09-09T15:06:38.077Z,96798.66
2023-09-09T15:09:05.638Z,96794.19
2023-09-09T15:11:32.361Z,96805.19
2023-09-09T15:14:00.890Z,96807.44
2023-09-09T15:16:46.682Z,96804.94
2023-09-09T15:19:14.158Z,96804.44
2023-09-09T15:21:41.024Z,96802.69
2023-09-09T15:24:08.257Z,96798.44
2023-09-09T15:26:35.247Z,96799.41
2023-09-09T15:29:02.049Z,96799.19
2023-09-09T15:31:29.145Z,96801.19
2023-09-09T15:33:56.052Z,96797.91
2023-09-09T15:36:23.003Z,96804.19
2023-09-09T15:38:49.654Z,96799.91
2023-09-09T15:41:16.650Z,96800.13
2023-09-09T15:43:48.034Z,96800.13
2023-09-09T15:46:15.117Z,96795.63
2023-09-09T15:48:41.965Z,96800.84
2023-09-09T15:51:08.847Z,96803.34
2023-09-09T15:53:35.576Z,96799.09
2023-09-09T15:56:04.212Z,96802.59
2023-09-09T15:58:31.119Z,96794.81
2023-09-09T16:01:01.008Z,96801.06
2023-09-09T16:03:27.769Z,96804.53
2023-09-09T16:06:01.191Z,96798.53
2023-09-09T16:08:27.884Z,96795.47
2023-09-09T16:10:57.534Z,96790.22
2023-09-09T16:13:27.976Z,96790.97
2023-09-09T16:16:02.755Z,96793.94
2023-09-09T16:18:31.263Z,96795.91
2023-09-09T16:20:59.146Z,96798.63
2023-09-09T16:23:25.963Z,96799.88
2023-09-09T16:25:54.264Z,96797.34
2023-09-09T16:28:22.244Z,96796.56
2023-09-09T16:30:49.278Z,96796.06
2023-09-09T16:33:17.759Z,96807.25
2023-09-09T16:35:45.531Z,96805.69
2023-09-09T16:38:12.959Z,96807.69
2023-09-09T16:40:40.577Z,96803.66
2023-09-09T16:43:07.551Z,96803.88
2023-09-09T16:45:34.637Z,96800.84
2023-09-09T16:48:04.847Z,96801.75
2023-09-09T16:50:31.818Z,96814.22
2023-09-09T16:52:59.036Z,96815.16
2023-09-09T16:55:26.901Z,96814.53
2023-09-09T16:57:54.184Z,96814.72
2023-09-09T17:00:21.455Z,96814.41
2023-09-09T17:02:48.685Z,96813.56
2023-09-09T17:05:15.535Z,96816.94
2023-09-09T17:07:42.311Z,96823.72
2023-09-09T17:10:10.547Z,96823.81
2023-09-09T17:12:37.454Z,96819.47
2023-09-09T17:15:04.440Z,96821.31
2023-09-09T17:17:31.369Z,96819.47
2023-09-09T17:19:58.359Z,96819.84
2023-09-09T17:22:25.625Z,96822.47
2023-09-09T17:24:52.312Z,96821.81
2023-09-09T17:27:19.169Z,96825.75
2023-09-09T17:29:45.940Z,96831.88
2023-09-09T17:32:13.184Z,96821.81
2023-09-09T17:34:42.043Z,96829.19
2023-09-09T17:37:09.766Z,96827.59
2023-09-09T17:39:36.733Z,96830.13
2023-09-09T17:42:03.516Z,96831.19
2023-09-09T17:44:30.234Z,96835.25
2023-09-09T17:46:57.433Z,96837.72
2023-09-09T17:49:27.028Z,96837.38
2023-09-09T17:51:55.453Z,96837.94
2023-09-09T17:54:26.759Z,96842.44
2023-09-09T17:56:57.125Z,96844.03
2023-09-09T17:59:24.107Z,96852.59
2023-09-09T18:01:50.950Z,96850.69
2023-09-09T18:04:19.565Z,96858.16
2023-09-09T18:06:48.461Z,96853.81
2023-09-09T18:09:15.496Z,96849.28
2023-09-09T18:11:43.361Z,96854.34
2023-09-09T18:14:10.103Z,96864.84
2023-09-09T18:16:36.935Z,96861.88
2023-09-09T18:19:03.930Z,96861.47
2023-09-09T18:21:30.712Z,96856.81
2023-09-09T18:23:57.781Z,96864.81
2023-09-09T18:26:24.819Z,96867.91
2023-09-09T18:28:52.031Z,96872.47
2023-09-09T18:31:20.554Z,96877.03
2023-09-09T18:33:47.979Z,96874.66
2023-09-09T18:36:15.251Z,96877.97
2023-09-09T18:38:43.549Z,96876.78
2023-09-09T18:41:11.368Z,96871.22
2023-09-09T18:43:38.307Z,96868.94
2023-09-09T18:46:06.623Z,96880.03
2023-09-09T18:48:33.974Z,96881.38
2023-09-09T18:51:03.278Z,96886.72
2023-09-09T18:53:32.035Z,96881.84
2023-09-09T18:55:59.166Z,96883.66
2023-09-09T18:58:26.094Z,96883.38
2023-09-09T19:00:53.612Z,96892.91
2023-09-09T19:03:23.129Z,96888.84
2023-09-09T19:05:51.061Z,96894.28
2023-09-09T19:08:18.393Z,96899.88
2023-09-09T19:10:45.309Z,96895.03
2023-09-09T19:13:15.245Z,96893.97
2023-09-09T19:15:42.240Z,96894.13
2023-09-09T19:18:09.387Z,96892.00
2023-09-09T19:20:36.922Z,96899.88
2023-09-09T19:23:04.641Z,96904.72
2023-09-09T19:25:33.694Z,96903.03
2023-09-09T19:28:02.058Z,96902.16
2023-09-09T19:30:28.915Z,96905.31
2023-09-09T19:32:55.891Z,96904.22
2023-09-09T19:35:22.916Z,96905.56
2023-09-09T19:37:51.781Z,96904.81
2023-09-09T19:40:20.028Z,96907.81
2023-09-09T19:42:46.728Z,96909.31
2023-09-09T19:45:14.979Z,96908.13
2023-09-09T19:47:41.937Z,96911.91
2023-09-09T19:50:09.563Z,96917.81
2023-09-09T19:52:36.583Z,96920.66
2023-09-09T19:55:03.746Z,96917.63
2023-09-09T19:57:30.522Z,96923.22
2023-09-09T19:59:57.911Z,96925.34
2023-09-09T20:02:24.723Z,96923.53
2023-09-09T20:04:51.954Z,96920.63
2023-09-09T20:07:18.755Z,96921.97
2023-09-09T20:09:49.546Z,96917.88
2023-09-09T20:12:16.693Z,96918.47
2023-09-09T20:14:45.585Z,96926.00
2023-09-09T20:17:14.701Z,96925.47
2023-09-09T20:19:44.369Z,96926.84
2023-09-09T20:22:11.500Z,96926.19
2023-09-09T20:24:38.215Z,96927.56
2023-09-09T20:27:05.351Z,96923.63
2023-09-09T20:29:32.292Z,96924.84
2023-09-09T20:31:59.451Z,96928.31
2023-09-09T20:34:26.611Z,96928.13
2023-09-09T20:36:53.632Z,96924.34
2023-09-09T20:39:22.339Z,96926.44
2023-09-09T20:41:50.902Z,96924.63
2023-09-09T20:44:17.700Z,96923.97
2023-09-09T20:46:47.847Z,96932.88
2023-09-09T20:49:14.910Z,96932.28
2023-09-09T20:51:41.846Z,96937.81
2023-09-09T20:54:08.664Z,96926.38
2023-09-09T20:56:35.452Z,96925.66
2023-09-09T20:59:02.381Z,96924.16
2023-09-09T21:01:34.682Z,96927.03
2023-09-09T21:04:01.773Z,96924.88
2023-09-09T21:06:28.671Z,96922.72
2023-09-09T21:08:55.324Z,96917.88
2023-09-09T21:11:22.436Z,96931.38
2023-09-09T21:13:49.364Z,96928.16
2023-09-09T21:16:16.355Z,96927.41
2023-09-09T21:18:44.630Z,96917.63
2023-09-09T21:21:11.477Z,96924.88
2023-09-09T21:23:38.283Z,96925.78
2023-09-09T21:26:05.496Z,96923.63
2023-09-09T21:28:32.365Z,96935.47
2023-09-09T21:30:59.397Z,96933.00
2023-09-09T21:33:26.657Z,96932.69
2023-09-09T21:35:56.042Z,96932.69
2023-09-09T21:38:22.944Z,96923.16
2023-09-09T21:40:49.821Z,96935.97
2023-09-09T21:43:18.235Z,96935.22
2023-09-09T21:45:45.110Z,96926.00
2023-09-09T21:48:12.276Z,96938.38
2023-09-09T21:50:39.281Z,96936.72
2023-09-09T21:53:06.386Z,96935.22
2023-09-09T21:55:33.164Z,96931.28
2023-09-09T21:57:59.873Z,96926.31
2023-09-09T22:00:27.708Z,96936.09
2023-09-09T22:02:54.858Z,96935.34
2023-09-09T22:05:21.571Z,96935.53
2023-09-09T22:07:48.463Z,96936.41
2023-09-09T22:10:15.564Z,96935.00
2023-09-09T22:12:42.672Z,96933.19
2023-09-09T22:15:11.518Z,96939.81
2023-09-09T22:17:39.455Z,96936.34
2023-09-09T22:20:12.784Z,96929.06
2023-09-09T22:22:41.420Z,96927.38
2023-09-09T22:25:15.758Z,96928.69
2023-09-09T22:27:42.632Z,96929.13
2023-09-09T22:30:10.359Z,96921.44
2023-09-09T22:32:37.210Z,96926.53
2023-09-09T22:35:07.215Z,96923.94
2023-09-09T22:37:35.642Z,96927.09
2023-09-09T22:40:02.769Z,96926.34
2023-09-09T22:42:29.886Z,96927.84
2023-09-09T22:44:56.930Z,96929.81
2023-09-09T22:47:23.922Z,96920.34
2023-09-09T22:49:52.441Z,96929.25
2023-09-09T22:52:20.152Z,96923.03
2023-09-09T22:54:46.910Z,96922.75
2023-09-09T22:57:14.729Z,96931.78
2023-09-09T22:59:41.506Z,96923.88
2023-09-09T23:02:08.733Z,96931.75
2023-09-09T23:04:35.765Z,96934.28
2023-09-09T23:07:02.521Z,96924.41
2023-09-09T23:09:29.415Z,96919.53
2023-09-09T23:11:56.136Z,96927.34
2023-09-09T23:14:24.076Z,96927.47
2023-09-09T23:16:51.213Z,96935.28
2023-09-09T23:19:18.262Z,96929.63
2023-09-09T23:21:45.338Z,96937.44
2023-09-09T23:24:12.273Z,96939.81
2023-09-09T23:26:39.209Z,96943.06
2023-09-09T23:29:06.636Z,96942.41
2023-09-09T23:31:34.585Z,96939.91
2023-09-09T23:34:03.181Z,96942.97
2023-09-09T23:36:30.472Z,96939.91
2023-09-09T23:39:05.122Z,96950.00
2023-09-09T23:41:32.121Z,96949.59
2023-09-09T23:43:59.005Z,96945.44
2023-09-09T23:46:26.238Z,96944.91
2023-09-09T23:48:53.558Z,96944.28
2023-09-09T23:51:20.690Z,96944.81
2023-09-09T23:53:47.984Z,96950.06
2023-09-09T23:56:14.743Z,96949.41
2023-09-09T23:58:41.594Z,96947.22
